createdAt,value
2023-03-05T00:01:51.106Z,3.83
2023-03-05T00:04:53.180Z,4.13
2023-03-05T00:07:55.554Z,4.15
2023-03-05T00:11:04.277Z,3.43
2023-03-05T00:14:06.822Z,4.00
2023-03-05T00:17:08.741Z,4.50
2023-03-05T00:20:11.196Z,4.57
2023-03-05T00:23:13.827Z,4.50
2023-03-05T00:26:15.715Z,3.63
2023-03-05T00:29:20.455Z,4.10
2023-03-05T00:32:22.425Z,3.72
2023-03-05T00:35:24.461Z,4.05
2023-03-05T00:38:26.527Z,4.75
2023-03-05T00:41:28.375Z,4.38
2023-03-05T00:44:30.512Z,4.85
2023-03-05T00:47:32.944Z,4.35
2023-03-05T00:50:34.848Z,4.40
2023-03-05T00:53:36.836Z,4.07
2023-03-05T00:56:38.745Z,4.00
2023-03-05T00:59:40.776Z,3.70
2023-03-05T01:02:42.808Z,4.10
2023-03-05T01:05:46.047Z,3.70
2023-03-05T01:08:47.932Z,3.65
2023-03-05T01:11:49.976Z,3.70
2023-03-05T01:14:51.827Z,3.15
2023-03-05T01:17:54.074Z,4.72
2023-03-05T01:20:56.013Z,4.75
2023-03-05T01:23:58.951Z,4.03
2023-03-05T01:27:01.159Z,4.30
2023-03-05T01:30:03.357Z,4.32
2023-03-05T01:33:05.204Z,5.03
2023-03-05T01:36:08.711Z,4.88
2023-03-05T01:39:10.709Z,3.92
2023-03-05T01:42:12.993Z,4.53
2023-03-05T01:45:18.650Z,4.05
2023-03-05T01:48:20.563Z,4.53
2023-03-05T01:51:27.040Z,4.18
2023-03-05T01:54:43.262Z,4.40
2023-03-05T01:57:46.884Z,3.75
2023-03-05T02:00:51.306Z,3.90
2023-03-05T02:03:53.525Z,4.07
2023-03-05T02:06:56.131Z,4.05
2023-03-05T02:09:58.048Z,4.25
2023-03-05T02:13:03.104Z,4.65
2023-03-05T02:16:05.464Z,3.67
2023-03-05T02:19:10.647Z,4.28
2023-03-05T02:22:17.859Z,3.92
2023-03-05T02:25:25.496Z,3.75
2023-03-05T02:28:27.557Z,4.30
2023-03-05T02:31:31.269Z,4.47
2023-03-05T02:34:33.303Z,3.65
2023-03-05T02:37:35.249Z,4.25
2023-03-05T02:40:37.052Z,3.88
2023-03-05T02:43:39.126Z,4.10
2023-03-05T02:46:41.130Z,4.07
2023-03-05T02:49:43.164Z,4.00
2023-03-05T02:52:45.591Z,3.72
2023-03-05T02:55:48.653Z,3.67
2023-03-05T02:58:50.642Z,4.03
2023-03-05T03:01:52.447Z,3.67
2023-03-05T03:04:54.432Z,3.58
2023-03-05T03:07:56.304Z,3.67
2023-03-05T03:11:05.889Z,4.03
2023-03-05T03:14:07.785Z,3.63
2023-03-05T03:17:14.458Z,3.70
2023-03-05T03:20:18.044Z,3.40
2023-03-05T03:23:19.849Z,4.03
2023-03-05T03:26:21.728Z,3.67
2023-03-05T03:29:24.146Z,3.50
2023-03-05T03:32:25.977Z,4.40
2023-03-05T03:35:27.859Z,3.15
2023-03-05T03:38:29.942Z,4.10
2023-03-05T03:41:32.959Z,3.75
2023-03-05T03:44:35.068Z,3.85
2023-03-05T03:47:37.624Z,5.07
2023-03-05T03:50:43.782Z,4.37
2023-03-05T03:53:45.836Z,4.43
2023-03-05T03:56:48.065Z,4.45
2023-03-05T03:59:51.022Z,4.85
2023-03-05T04:02:53.080Z,3.90
2023-03-05T04:05:55.050Z,4.10
2023-03-05T04:08:56.997Z,3.50
2023-03-05T04:11:58.830Z,3.78
2023-03-05T04:15:00.762Z,3.83
2023-03-05T04:18:02.862Z,3.95
2023-03-05T04:21:05.640Z,4.65
2023-03-05T04:24:09.113Z,4.18
2023-03-05T04:27:11.755Z,2.33
2023-03-05T04:30:16.906Z,2.63
2023-03-05T04:33:18.892Z,2.70
2023-03-05T04:36:21.713Z,3.38
2023-03-05T04:39:23.566Z,4.38
2023-03-05T04:42:25.507Z,4.40
2023-03-05T04:45:27.489Z,4.60
2023-03-05T04:48:29.536Z,5.43
2023-03-05T04:51:31.516Z,5.07
2023-03-05T04:54:33.367Z,4.60
2023-03-05T04:57:36.251Z,5.07
2023-03-05T05:00:38.967Z,5.05
2023-03-05T05:03:40.866Z,4.90
2023-03-05T05:06:42.689Z,4.75
2023-03-05T05:09:45.304Z,4.68
2023-03-05T05:12:47.116Z,4.87
2023-03-05T05:15:48.989Z,5.03
2023-03-05T05:18:50.838Z,4.97
2023-03-05T05:21:53.184Z,5.07
2023-03-05T05:24:55.967Z,4.93
2023-03-05T05:27:57.710Z,5.03
2023-03-05T05:31:00.032Z,4.80
2023-03-05T05:34:02.079Z,4.90
2023-03-05T05:37:04.114Z,5.05
2023-03-05T05:40:06.621Z,5.50
2023-03-05T05:43:09.275Z,5.07
2023-03-05T05:46:14.945Z,5.07
2023-03-05T05:49:16.946Z,4.60
2023-03-05T05:52:18.806Z,4.68
2023-03-05T05:55:20.843Z,4.43
2023-03-05T05:58:22.945Z,4.00
2023-03-05T06:01:28.322Z,4.00
2023-03-05T06:04:30.100Z,4.47
2023-03-05T06:07:34.387Z,4.20
2023-03-05T06:10:36.288Z,3.97
2023-03-05T06:13:38.792Z,3.80
2023-03-05T06:16:41.002Z,3.73
2023-03-05T06:19:42.870Z,4.18
2023-03-05T06:22:44.907Z,4.00
2023-03-05T06:25:46.828Z,3.83
2023-03-05T06:28:49.135Z,4.60
2023-03-05T06:31:51.214Z,4.30
2023-03-05T06:34:53.184Z,4.47
2023-03-05T06:37:55.071Z,4.30
2023-03-05T06:41:01.906Z,4.15
2023-03-05T06:44:04.162Z,4.25
2023-03-05T06:47:07.442Z,4.07
2023-03-05T06:50:10.042Z,4.72
2023-03-05T06:53:11.991Z,4.97
2023-03-05T06:56:16.790Z,4.32
2023-03-05T06:59:19.024Z,5.07
2023-03-05T07:02:20.798Z,5.47
2023-03-05T07:05:22.820Z,6.03
2023-03-05T07:08:27.973Z,6.20
2023-03-05T07:11:30.671Z,5.70
2023-03-05T07:14:32.536Z,6.70
2023-03-05T07:17:34.401Z,6.80
2023-03-05T07:20:37.366Z,7.28
2023-03-05T07:23:39.229Z,8.00
2023-03-05T07:26:41.203Z,7.47
2023-03-05T07:29:43.273Z,7.72
2023-03-05T07:32:48.399Z,7.32
2023-03-05T07:35:50.871Z,7.63
2023-03-05T07:38:53.385Z,9.23
2023-03-05T07:41:55.719Z,7.57
2023-03-05T07:44:57.592Z,6.05
2023-03-05T07:47:59.684Z,8.40
2023-03-05T07:51:08.019Z,9.05
2023-03-05T07:54:10.567Z,9.43
2023-03-05T07:57:13.537Z,8.63
2023-03-05T08:00:15.953Z,9.13
2023-03-05T08:03:17.799Z,9.30
2023-03-05T08:06:20.151Z,8.85
2023-03-05T08:09:22.500Z,8.93
2023-03-05T08:12:24.622Z,8.90
2023-03-05T08:15:26.731Z,8.77
2023-03-05T08:18:28.772Z,8.57
2023-03-05T08:21:36.023Z,8.60
2023-03-05T08:24:37.944Z,7.78
2023-03-05T08:27:44.430Z,8.10
2023-03-05T08:30:47.720Z,8.20
2023-03-05T08:33:51.257Z,7.93
2023-03-05T08:36:53.310Z,7.05
2023-03-05T08:39:56.338Z,6.90
2023-03-05T08:42:59.884Z,6.78
2023-03-05T08:46:02.215Z,6.97
2023-03-05T08:49:04.265Z,6.63
2023-03-05T08:52:06.267Z,6.85
2023-03-05T08:55:08.634Z,7.38
2023-03-05T08:58:10.688Z,6.77
2023-03-05T09:01:13.260Z,6.07
2023-03-05T09:04:15.841Z,4.85
2023-03-05T09:07:18.289Z,5.07
2023-03-05T09:10:20.585Z,3.30
2023-03-05T09:13:22.728Z,5.43
2023-03-05T09:16:24.872Z,5.13
2023-03-05T09:19:27.815Z,4.78
2023-03-05T09:22:30.136Z,5.05
2023-03-05T09:25:31.992Z,5.82
2023-03-05T09:28:34.092Z,5.13
2023-03-05T09:31:39.303Z,5.50
2023-03-05T09:34:41.479Z,5.38
2023-03-05T09:37:43.212Z,5.47
2023-03-05T09:41:03.465Z,5.85
2023-03-05T09:44:24.528Z,6.18
2023-03-05T09:47:48.088Z,6.28
2023-03-05T09:50:59.426Z,6.40
2023-03-05T09:54:03.780Z,6.80
2023-03-05T09:57:14.298Z,6.07
2023-03-05T10:00:33.901Z,6.97
2023-03-05T10:04:00.338Z,5.82
2023-03-05T10:07:33.867Z,6.18
2023-03-05T10:10:44.596Z,6.28
2023-03-05T10:13:47.039Z,6.55
2023-03-05T10:17:04.871Z,6.17
2023-03-05T10:20:45.637Z,6.78
2023-03-05T10:24:11.808Z,5.80
2023-03-05T10:27:26.671Z,6.03
2023-03-05T10:30:33.633Z,6.22
2023-03-05T10:33:54.212Z,5.72
2023-03-05T10:37:20.459Z,6.43
2023-03-05T10:40:47.063Z,5.90
2023-03-05T10:44:10.554Z,6.35
2023-03-05T10:47:21.589Z,5.88
2023-03-05T10:50:26.551Z,5.10
2023-03-05T10:53:44.009Z,6.10
2023-03-05T10:56:45.973Z,3.65
2023-03-05T10:59:53.530Z,3.15
2023-03-05T11:03:11.185Z,3.20
2023-03-05T11:06:13.644Z,3.78
2023-03-05T11:09:24.422Z,4.93
2023-03-05T11:12:34.528Z,5.07
2023-03-05T11:15:36.397Z,6.75
2023-03-05T11:18:38.412Z,6.25
2023-03-05T11:21:41.315Z,6.32
2023-03-05T11:24:46.668Z,6.60
2023-03-05T11:27:54.951Z,6.10
2023-03-05T11:30:59.096Z,6.05
2023-03-05T11:34:05.481Z,7.00
2023-03-05T11:37:18.749Z,6.68
2023-03-05T11:40:24.876Z,6.65
2023-03-05T11:43:26.999Z,6.55
2023-03-05T11:46:30.343Z,6.20
2023-03-05T11:52:48.024Z,6.10
2023-03-05T11:55:52.330Z,4.10
2023-03-05T11:59:26.195Z,5.68
2023-03-05T12:02:28.556Z,4.90
2023-03-05T12:05:32.242Z,4.85
2023-03-05T12:08:37.839Z,5.20
2023-03-05T12:11:40.131Z,5.18
2023-03-05T12:14:48.389Z,4.70
2023-03-05T12:18:14.972Z,4.53
2023-03-05T12:21:36.958Z,4.90
2023-03-05T12:24:39.925Z,5.25
2023-03-05T12:27:42.350Z,4.40
2023-03-05T12:30:44.786Z,4.27
2023-03-05T12:33:46.786Z,4.43
2023-03-05T12:36:48.565Z,3.88
2023-03-05T12:39:57.164Z,3.90
2023-03-05T12:43:04.921Z,3.63
2023-03-05T12:46:26.522Z,3.97
2023-03-05T12:49:29.540Z,4.15
2023-03-05T12:52:33.998Z,4.57
2023-03-05T12:55:47.842Z,4.25
2023-03-05T12:58:53.122Z,3.00
2023-03-05T13:02:03.435Z,3.40
2023-03-05T13:05:19.699Z,3.05
2023-03-05T13:08:26.343Z,3.25
2023-03-05T13:11:30.772Z,2.60
2023-03-05T13:14:42.872Z,3.90
2023-03-05T13:18:00.527Z,3.88
2023-03-05T13:21:02.553Z,4.07
2023-03-05T13:24:04.695Z,3.38
2023-03-05T13:27:29.388Z,3.25
2023-03-05T13:30:33.611Z,3.08
2023-03-05T13:33:37.233Z,3.13
2023-03-05T13:36:40.659Z,2.53
2023-03-05T13:43:12.500Z,2.88
2023-03-05T13:46:22.333Z,3.10
2023-03-05T13:49:26.809Z,2.70
2023-03-05T13:52:31.641Z,3.80
2023-03-05T13:55:35.479Z,2.95
2023-03-05T13:58:48.749Z,2.70
2023-03-05T14:01:52.863Z,2.70
2023-03-05T14:04:55.419Z,3.25
2023-03-05T14:07:58.231Z,2.63
2023-03-05T14:11:12.775Z,3.30
2023-03-05T14:14:17.872Z,2.90
2023-03-05T14:17:38.760Z,2.80
2023-03-05T14:20:59.354Z,2.95
2023-03-05T14:24:13.789Z,4.22
2023-03-05T14:27:21.154Z,3.75
2023-03-05T14:30:24.948Z,4.28
2023-03-05T14:33:30.796Z,4.40
2023-03-05T14:36:33.768Z,4.10
2023-03-05T14:39:53.107Z,4.75
2023-03-05T14:42:55.546Z,4.10
2023-03-05T14:45:57.436Z,3.90
2023-03-05T14:48:59.380Z,2.67
2023-03-05T14:52:01.258Z,2.30
2023-03-05T14:55:04.639Z,2.80
2023-03-05T15:01:16.263Z,2.55
2023-03-05T15:04:19.866Z,2.67
2023-03-05T15:07:32.610Z,2.35
2023-03-05T15:10:34.422Z,2.33
2023-03-05T15:13:36.650Z,2.38
2023-03-05T15:16:42.154Z,2.28
2023-03-05T15:19:44.392Z,2.40
2023-03-05T15:22:46.711Z,1.90
2023-03-05T15:25:48.872Z,2.08
2023-03-05T15:28:50.713Z,2.30
2023-03-05T15:31:55.690Z,2.15
2023-03-05T15:34:58.799Z,2.65
2023-03-05T15:38:00.691Z,3.30
2023-03-05T15:41:02.593Z,2.97
2023-03-05T15:44:04.637Z,3.25
2023-03-05T15:47:07.017Z,3.42
2023-03-05T15:50:10.881Z,3.88
2023-03-05T15:53:16.307Z,4.60
2023-03-05T15:56:19.428Z,4.60
2023-03-05T15:59:22.093Z,4.45
2023-03-05T16:02:25.077Z,4.78
2023-03-05T16:05:26.980Z,5.20
2023-03-05T16:08:29.067Z,5.63
2023-03-05T16:11:38.126Z,5.20
2023-03-05T16:14:41.732Z,4.47
2023-03-05T16:17:46.224Z,5.20
2023-03-05T16:20:48.550Z,5.30
2023-03-05T16:23:50.433Z,4.15
2023-03-05T16:26:52.391Z,4.07
2023-03-05T16:29:54.325Z,3.92
2023-03-05T16:32:56.251Z,3.65
2023-03-05T16:36:35.674Z,3.90
2023-03-05T16:39:37.638Z,4.18
2023-03-05T16:42:39.784Z,4.28
2023-03-05T16:45:42.241Z,3.90
2023-03-05T16:48:44.362Z,3.72
2023-03-05T16:51:46.349Z,4.40
2023-03-05T16:54:49.085Z,4.15
2023-03-05T16:57:51.155Z,3.70
2023-03-05T17:00:53.022Z,4.07
2023-03-05T17:03:59.111Z,3.70
2023-03-05T17:07:04.297Z,3.83
2023-03-05T17:10:06.727Z,3.90
2023-03-05T17:13:09.086Z,4.23
2023-03-05T17:16:14.209Z,4.60
2023-03-05T17:19:16.835Z,4.30
2023-03-05T17:22:18.723Z,5.47
2023-03-05T17:25:21.243Z,6.32
2023-03-05T17:28:23.444Z,7.70
2023-03-05T17:31:25.288Z,6.97
2023-03-05T17:34:36.234Z,7.45
2023-03-05T17:37:38.530Z,6.70
2023-03-05T17:40:40.709Z,7.25
2023-03-05T17:43:42.675Z,6.65
2023-03-05T17:46:44.478Z,6.90
2023-03-05T17:49:46.496Z,9.77
2023-03-05T17:52:48.336Z,7.32
2023-03-05T17:55:50.193Z,6.45
2023-03-05T17:58:53.069Z,7.78
2023-03-05T18:01:55.059Z,8.43
2023-03-05T18:04:56.853Z,7.53
2023-03-05T18:08:00.116Z,8.73
2023-03-05T18:14:04.181Z,8.88
2023-03-05T18:17:06.471Z,7.82
2023-03-05T18:20:12.411Z,8.27
2023-03-05T18:23:14.368Z,8.38
2023-03-05T18:26:16.415Z,8.85
2023-03-05T18:29:18.848Z,8.95
2023-03-05T18:32:22.373Z,8.85
2023-03-05T18:35:24.753Z,9.05
2023-03-05T18:38:28.741Z,8.97
2023-03-05T18:41:31.326Z,9.13
2023-03-05T18:44:33.305Z,9.27
2023-03-05T18:47:35.089Z,8.93
2023-03-05T18:50:36.985Z,9.35
2023-03-05T18:53:39.326Z,9.07
2023-03-05T18:56:41.224Z,8.52
2023-03-05T18:59:42.962Z,9.15
2023-03-05T19:02:45.181Z,8.52
2023-03-05T19:10:11.510Z,9.25
2023-03-05T19:13:37.365Z,7.80
2023-03-05T19:16:44.049Z,7.00
2023-03-05T19:19:55.715Z,6.40
2023-03-05T19:22:57.634Z,6.90
2023-03-05T19:26:01.385Z,6.68
2023-03-05T19:29:03.981Z,6.78
2023-03-05T19:32:08.084Z,5.10
2023-03-05T19:35:15.058Z,6.38
2023-03-05T19:38:16.964Z,6.18
2023-03-05T19:41:21.209Z,5.95
2023-03-05T19:44:23.787Z,5.57
2023-03-05T19:47:26.022Z,5.43
2023-03-05T19:50:27.996Z,5.78
2023-03-05T19:53:30.287Z,5.88
2023-03-05T19:56:32.126Z,6.20
2023-03-05T19:59:33.914Z,6.80
2023-03-05T20:02:35.769Z,7.10
2023-03-05T20:05:38.367Z,6.32
2023-03-05T20:08:41.609Z,6.60
2023-03-05T20:11:43.601Z,6.32
2023-03-05T20:14:45.336Z,5.72
2023-03-05T20:17:47.371Z,6.18
2023-03-05T20:20:58.817Z,6.85
2023-03-05T20:24:07.812Z,6.38
2023-03-05T20:27:11.007Z,7.70
2023-03-05T20:30:15.600Z,7.80
2023-03-05T20:33:17.426Z,7.90
2023-03-05T20:36:19.241Z,8.80
2023-03-05T20:39:21.181Z,10.55
2023-03-05T20:42:23.008Z,9.57
2023-03-05T20:45:24.779Z,9.15
2023-03-05T20:48:31.966Z,8.00
2023-03-05T20:51:38.033Z,7.40
2023-03-05T20:54:40.115Z,6.78
2023-03-05T20:57:44.056Z,6.05
2023-03-05T21:00:46.157Z,8.00
2023-03-05T21:03:48.276Z,8.55
2023-03-05T21:06:53.269Z,7.22
2023-03-05T21:09:55.690Z,7.38
2023-03-05T21:13:00.332Z,6.50
2023-03-05T21:16:09.987Z,6.70
2023-03-05T21:19:11.964Z,7.30
2023-03-05T21:22:13.752Z,6.93
2023-03-05T21:25:24.807Z,7.75
2023-03-05T21:28:27.033Z,7.00
2023-03-05T21:31:28.855Z,6.53
2023-03-05T21:34:30.615Z,6.40
2023-03-05T21:37:32.638Z,6.55
2023-03-05T21:40:36.628Z,6.95
2023-03-05T21:43:38.738Z,7.15
2023-03-05T21:46:42.705Z,6.88
2023-03-05T21:49:44.533Z,7.80
2023-03-05T21:52:46.969Z,7.63
2023-03-05T21:56:30.960Z,7.75
2023-03-05T21:59:33.191Z,7.40
2023-03-05T22:02:34.953Z,8.63
2023-03-05T22:05:36.836Z,8.43
2023-03-05T22:08:39.661Z,8.73
2023-03-05T22:11:42.944Z,8.20
2023-03-05T22:17:46.744Z,7.80
2023-03-05T22:20:49.145Z,8.65
2023-03-05T22:23:51.249Z,7.70
2023-03-05T22:26:53.048Z,7.55
2023-03-05T22:29:54.773Z,7.53
2023-03-05T22:32:57.517Z,8.23
2023-03-05T22:35:59.682Z,7.82
2023-03-05T22:39:01.848Z,7.65
2023-03-05T22:42:04.370Z,7.43
2023-03-05T22:45:06.874Z,8.07
2023-03-05T22:48:10.043Z,8.00
2023-03-05T22:51:12.530Z,8.38
2023-03-05T22:54:14.410Z,7.97
2023-03-05T22:57:16.407Z,7.25
2023-03-05T23:00:23.543Z,7.65
2023-03-05T23:03:25.969Z,7.60
2023-03-05T23:06:28.400Z,7.50
2023-03-05T23:09:30.828Z,8.40
2023-03-05T23:12:46.272Z,7.73
2023-03-05T23:15:48.321Z,8.25
2023-03-05T23:18:50.357Z,8.23
2023-03-05T23:21:55.066Z,9.10
2023-03-05T23:24:57.150Z,8.52
2023-03-05T23:28:00.021Z,8.38
2023-03-05T23:31:03.203Z,9.02
2023-03-05T23:34:05.466Z,8.88
2023-03-05T23:37:07.344Z,8.75
2023-03-05T23:40:15.173Z,9.45
2023-03-05T23:43:18.519Z,10.13
2023-03-05T23:49:22.147Z,8.63
2023-03-05T23:52:24.027Z,9.70
2023-03-05T23:55:32.287Z,10.77
2023-03-05T23:58:36.019Z,10.00
